createdAt,value
2023-03-29T00:04:14.643Z,13.58
2023-03-29T00:09:58.768Z,13.57
2023-03-29T00:15:42.931Z,13.56
2023-03-29T00:21:26.953Z,13.59
2023-03-29T00:27:11.020Z,13.58
2023-03-29T00:32:55.044Z,13.57
2023-03-29T00:38:40.065Z,13.58
2023-03-29T00:44:35.498Z,13.58
2023-03-29T00:50:20.607Z,13.63
2023-03-29T00:56:07.221Z,13.63
2023-03-29T01:01:53.488Z,13.65
2023-03-29T01:07:42.982Z,13.65
2023-03-29T01:13:32.306Z,13.66
2023-03-29T01:19:19.038Z,13.7
2023-03-29T01:25:10.371Z,13.68
2023-03-29T01:30:57.096Z,13.67
2023-03-29T01:36:44.787Z,13.65
2023-03-29T01:42:40.925Z,13.72
2023-03-29T01:48:28.676Z,13.72
2023-03-29T01:54:15.266Z,13.72
2023-03-29T02:00:00.561Z,13.69
2023-03-29T02:05:45.103Z,13.66
2023-03-29T02:11:29.417Z,13.63
2023-03-29T02:17:23.226Z,13.6
2023-03-29T02:23:10.866Z,13.6
2023-03-29T02:28:55.073Z,13.58
2023-03-29T02:34:43.077Z,13.57
2023-03-29T02:40:27.276Z,13.54
2023-03-29T02:46:12.493Z,13.54
2023-03-29T02:51:57.820Z,13.55
2023-03-29T02:57:42.005Z,13.54
2023-03-29T03:03:26.284Z,13.51
2023-03-29T03:09:10.738Z,13.53
2023-03-29T03:14:54.941Z,13.53
2023-03-29T03:20:39.853Z,13.52
2023-03-29T03:26:24.052Z,13.48
2023-03-29T03:32:08.218Z,13.47
2023-03-29T03:37:52.317Z,13.43
2023-03-29T03:43:36.454Z,13.4
2023-03-29T03:49:20.505Z,13.42
2023-03-29T03:55:04.930Z,13.39
2023-03-29T04:00:49.330Z,13.41
2023-03-29T04:06:33.387Z,13.43
2023-03-29T04:12:17.342Z,13.45
2023-03-29T04:18:01.520Z,13.47
2023-03-29T04:23:46.638Z,13.52
2023-03-29T04:29:30.776Z,13.51
2023-03-29T04:35:15.135Z,13.48
2023-03-29T04:41:00.698Z,13.48
2023-03-29T04:46:47.471Z,13.48
2023-03-29T04:52:31.774Z,13.54
2023-03-29T04:58:15.919Z,13.52
2023-03-29T05:04:06.739Z,13.52
2023-03-29T05:09:54.759Z,13.52
2023-03-29T05:15:40.823Z,13.49
2023-03-29T05:21:25.418Z,13.57
2023-03-29T05:27:09.431Z,13.49
2023-03-29T05:32:53.481Z,13.48
2023-03-29T05:38:37.623Z,13.48
2023-03-29T05:44:21.763Z,13.52
2023-03-29T05:50:06.527Z,13.59
2023-03-29T05:55:50.650Z,13.62
2023-03-29T06:01:34.766Z,13.64
2023-03-29T06:07:18.742Z,13.68
2023-03-29T06:13:03.707Z,13.75
2023-03-29T06:18:47.752Z,13.84
2023-03-29T06:24:31.655Z,13.88
2023-03-29T06:30:16.601Z,13.93
2023-03-29T06:36:00.643Z,14.15
2023-03-29T06:41:45.815Z,14.47
2023-03-29T06:47:29.521Z,14.52
2023-03-29T06:53:13.921Z,14.84
2023-03-29T06:58:58.081Z,15.08
2023-03-29T07:04:42.237Z,14.88
2023-03-29T07:10:27.262Z,14.78
2023-03-29T07:16:11.748Z,14.79
2023-03-29T07:21:56.314Z,14.89
2023-03-29T07:27:41.010Z,15.19
2023-03-29T07:33:25.069Z,15.37
2023-03-29T07:39:09.603Z,15.36
2023-03-29T07:44:53.878Z,15.5
2023-03-29T07:50:37.971Z,15.54
2023-03-29T07:56:22.652Z,15.52
2023-03-29T08:02:06.639Z,15.61
2023-03-29T08:07:50.745Z,15.75
2023-03-29T08:13:34.788Z,15.91
2023-03-29T08:19:18.868Z,16.01
2023-03-29T08:25:03.353Z,16.11
2023-03-29T08:30:47.267Z,16.29
2023-03-29T08:36:31.466Z,16.36
2023-03-29T08:42:24.763Z,16.45
2023-03-29T08:48:14.570Z,16.65
2023-03-29T08:54:00.997Z,16.82
2023-03-29T08:59:45.704Z,17.08
2023-03-29T09:05:33.015Z,17.35
2023-03-29T09:11:29.687Z,17.39
2023-03-29T09:17:17.275Z,17.47
2023-03-29T09:23:11.309Z,17.47
2023-03-29T09:28:58.425Z,17.59
2023-03-29T09:34:43.940Z,17.96
2023-03-29T09:40:31.053Z,18.04
2023-03-29T09:46:19.807Z,18.34
2023-03-29T09:52:06.941Z,18.66
2023-03-29T09:57:51.405Z,18.7
2023-03-29T10:03:36.158Z,18.8
2023-03-29T10:09:21.396Z,18.78
2023-03-29T10:15:06.192Z,19.01
2023-03-29T10:21:06.791Z,19.25
2023-03-29T10:26:51.669Z,19.61
2023-03-29T10:32:36.306Z,19.68
2023-03-29T10:38:22.909Z,19.82
2023-03-29T10:44:14.562Z,19.87
2023-03-29T10:49:58.430Z,20.11
2023-03-29T10:55:46.419Z,20.25
2023-03-29T11:01:34.669Z,20.36
2023-03-29T11:07:30.418Z,20.55
2023-03-29T11:13:19.602Z,20.67
2023-03-29T11:19:15.958Z,20.66
2023-03-29T11:25:04.706Z,20.44
2023-03-29T11:30:51.212Z,20.26
2023-03-29T11:36:38.121Z,20.05
2023-03-29T11:42:24.124Z,20.15
2023-03-29T11:48:13.938Z,20.15
2023-03-29T11:54:01.699Z,20.23
2023-03-29T11:59:50.690Z,20.29
2023-03-29T12:05:36.766Z,20.5
2023-03-29T12:11:25.717Z,20.79
2023-03-29T12:17:12.505Z,20.97
2023-03-29T12:22:56.767Z,21.05
2023-03-29T12:28:52.785Z,21.3
2023-03-29T12:34:44.611Z,21.51
2023-03-29T12:40:33.834Z,21.7
2023-03-29T12:46:19.279Z,21.78
2023-03-29T12:52:06.104Z,21.94
2023-03-29T12:58:01.353Z,21.96
2023-03-29T13:03:46.964Z,22.29
2023-03-29T13:09:31.721Z,22.55
2023-03-29T13:15:27.201Z,22.74
2023-03-29T13:21:17.791Z,23.06
2023-03-29T13:27:07.385Z,23.09
2023-03-29T13:32:55.783Z,23.15
2023-03-29T13:38:48.415Z,23.1
2023-03-29T13:44:37.504Z,23.06
2023-03-29T13:50:26.603Z,22.98
2023-03-29T13:56:14.349Z,22.73
2023-03-29T14:02:00.608Z,22.68
2023-03-29T14:07:47.546Z,22.68
2023-03-29T14:13:31.656Z,22.56
2023-03-29T14:19:18.177Z,22.32
2023-03-29T14:25:05.223Z,22.38
2023-03-29T14:30:49.302Z,22.61
2023-03-29T14:36:34.482Z,22.46
2023-03-29T14:42:20.278Z,22.31
2023-03-29T14:48:04.629Z,22.26
2023-03-29T14:53:49.693Z,22.19
2023-03-29T14:59:37.455Z,22.08
2023-03-29T15:05:41.452Z,21.98
2023-03-29T15:11:26.521Z,21.9
2023-03-29T15:17:15.755Z,21.85
2023-03-29T15:23:01.715Z,21.96
2023-03-29T15:28:50.386Z,22.05
2023-03-29T15:34:34.601Z,21.89
2023-03-29T15:40:21.199Z,21.76
2023-03-29T15:46:06.922Z,21.62
2023-03-29T15:51:51.953Z,21.64
2023-03-29T15:57:36.193Z,21.55
2023-03-29T16:03:20.759Z,21.44
2023-03-29T16:09:05.344Z,21.38
2023-03-29T16:14:49.343Z,21.25
2023-03-29T16:20:33.259Z,21.13
2023-03-29T16:26:17.528Z,21
2023-03-29T16:32:02.514Z,20.88
2023-03-29T16:37:50.153Z,20.8
2023-03-29T16:43:34.487Z,20.79
2023-03-29T16:49:18.463Z,20.7
2023-03-29T16:55:02.479Z,20.58
2023-03-29T17:00:48.355Z,20.45
2023-03-29T17:06:33.397Z,20.33
2023-03-29T17:12:18.311Z,20.18
2023-03-29T17:18:02.697Z,20.08
2023-03-29T17:23:46.872Z,20.01
2023-03-29T17:29:30.902Z,19.94
2023-03-29T17:35:15.000Z,19.81
2023-03-29T17:40:58.958Z,19.65
2023-03-29T17:46:44.156Z,19.58
2023-03-29T17:52:28.543Z,19.49
2023-03-29T17:58:12.625Z,19.35
2023-03-29T18:03:56.600Z,19.28
2023-03-29T18:09:41.823Z,19.16
2023-03-29T18:15:25.878Z,19.07
2023-03-29T18:21:10.066Z,19.02
2023-03-29T18:26:54.225Z,18.97
2023-03-29T18:32:38.305Z,18.88
2023-03-29T18:38:22.579Z,18.8
2023-03-29T18:44:06.610Z,18.71
2023-03-29T18:49:50.888Z,18.64
2023-03-29T18:55:34.853Z,18.6
2023-03-29T19:01:18.830Z,18.51
2023-03-29T19:07:04.988Z,18.46
2023-03-29T19:12:49.067Z,18.39
2023-03-29T19:18:33.498Z,18.36
2023-03-29T19:24:19.108Z,18.31
2023-03-29T19:30:07.191Z,18.26
2023-03-29T19:35:51.131Z,18.21
2023-03-29T19:41:35.253Z,18.16
2023-03-29T19:47:22.583Z,18.1
2023-03-29T19:53:07.709Z,18.06
2023-03-29T19:58:52.776Z,18.06
2023-03-29T20:04:36.880Z,17.99
2023-03-29T20:10:22.234Z,17.95
2023-03-29T20:16:06.513Z,17.93
2023-03-29T20:21:50.749Z,17.92
2023-03-29T20:27:34.851Z,17.92
2023-03-29T20:33:20.308Z,17.85
2023-03-29T20:39:04.542Z,17.83
2023-03-29T20:44:48.374Z,17.81
2023-03-29T20:50:32.333Z,17.84
2023-03-29T20:56:16.347Z,17.86
2023-03-29T21:02:00.554Z,17.76
2023-03-29T21:07:44.912Z,17.72
2023-03-29T21:13:28.982Z,17.65
2023-03-29T21:19:15.407Z,17.63
2023-03-29T21:24:59.479Z,17.59
2023-03-29T21:30:43.664Z,17.55
2023-03-29T21:36:27.873Z,17.6
2023-03-29T21:42:11.780Z,17.51
2023-03-29T21:47:55.807Z,17.49
2023-03-29T21:53:40.072Z,17.46
2023-03-29T21:59:24.190Z,17.4
2023-03-29T22:05:08.434Z,17.36
2023-03-29T22:10:52.971Z,17.32
2023-03-29T22:16:37.976Z,17.26
2023-03-29T22:22:22.675Z,17.21
2023-03-29T22:28:06.634Z,17.18
2023-03-29T22:33:53.327Z,17.14
2023-03-29T22:39:38.173Z,17.14
2023-03-29T22:45:22.284Z,17.09
2023-03-29T22:51:06.766Z,17.08
2023-03-29T22:56:50.920Z,17.06
2023-03-29T23:02:35.046Z,17.04
2023-03-29T23:08:19.087Z,17.01
2023-03-29T23:14:03.270Z,17
2023-03-29T23:19:47.566Z,16.97
2023-03-29T23:25:31.560Z,16.99
2023-03-29T23:31:15.803Z,16.95
2023-03-29T23:37:00.126Z,16.95
2023-03-29T23:42:45.912Z,16.96
2023-03-29T23:48:30.806Z,16.96
2023-03-29T23:54:15.200Z,16.96
2023-03-29T23:59:59.372Z,16.96
